Time;durP1;ratioP1;P1;durP2;ratioP2;P2;SDS_P1;SDS_P2;PMS_P1;PMS_P2;Temp;Humidity;BMP_temperature;BMP_pressure;BME280_temperature;BME280_humidity;BME280_pressure;Samples;Min_cycle;Max_cycle;Signal;HPM_P1;HPM_P2
2023/04/28 00:00:04;;;;;;;5.18;3.33;;;11.70;99.90;;;;;;5115431;28;20047;-63
2023/04/28 00:02:31;;;;;;;5.35;3.47;;;11.70;99.90;;;;;;5132362;28;20043;-62
2023/04/28 00:04:58;;;;;;;4.32;3.22;;;11.70;99.90;;;;;;5113382;28;20054;-63
2023/04/28 00:07:25;;;;;;;3.85;2.80;;;11.80;99.90;;;;;;5131611;27;20039;-63
2023/04/28 00:09:52;;;;;;;6.35;3.20;;;11.80;99.90;;;;;;5132139;28;20569;-62
2023/04/28 00:12:19;;;;;;;3.20;2.53;;;11.80;99.90;;;;;;5132655;27;20074;-63
2023/04/28 00:14:46;;;;;;;2.90;2.22;;;11.80;99.90;;;;;;5131186;27;20051;-62
2023/04/28 00:17:12;;;;;;;3.13;2.20;;;11.90;99.90;;;;;;4766384;28;10000534;-64
2023/04/28 00:19:39;;;;;;;2.97;2.08;;;11.90;99.90;;;;;;5107677;28;20060;-62
2023/04/28 00:22:06;;;;;;;2.92;1.95;;;11.90;99.90;;;;;;5109391;28;20454;-62
2023/04/28 00:24:35;;;;;;;7.22;2.45;;;11.90;99.90;;;;;;5110383;28;20154;-62
2023/04/28 00:27:02;;;;;;;3.63;1.80;;;11.90;99.90;;;;;;5091270;28;20130;-63
2023/04/28 00:29:28;;;;;;;3.17;2.17;;;11.90;99.90;;;;;;5100888;28;20453;-63
2023/04/28 00:31:55;;;;;;;2.67;2.20;;;12.00;99.90;;;;;;5091870;28;20077;-63
2023/04/28 00:34:22;;;;;;;2.00;1.58;;;12.00;99.90;;;;;;5093966;28;20052;-64
2023/04/28 00:36:49;;;;;;;2.30;1.75;;;12.00;99.90;;;;;;5115015;28;20079;-62
2023/04/28 00:39:17;;;;;;;1.90;1.50;;;12.00;99.90;;;;;;5114956;28;20329;-62
2023/04/28 00:41:44;;;;;;;2.58;1.65;;;12.10;99.90;;;;;;5117052;28;20134;-63
2023/04/28 00:44:11;;;;;;;2.72;1.60;;;12.10;99.90;;;;;;5116385;28;20075;-62
2023/04/28 00:46:37;;;;;;;1.58;1.13;;;12.10;99.90;;;;;;5116890;28;20079;-62
2023/04/28 00:49:04;;;;;;;1.42;1.20;;;12.10;99.90;;;;;;5116846;28;20130;-61
2023/04/28 00:51:32;;;;;;;2.97;1.88;;;12.10;99.90;;;;;;5081634;28;20147;-61
2023/04/28 00:53:59;;;;;;;2.47;1.73;;;12.10;99.90;;;;;;5116659;28;20055;-62
2023/04/28 00:56:27;;;;;;;3.05;1.48;;;12.10;99.90;;;;;;5113793;28;20107;-62
2023/04/28 00:58:54;;;;;;;1.55;1.45;;;12.10;99.90;;;;;;5095826;28;20138;-62
2023/04/28 01:01:21;;;;;;;4.20;1.75;;;12.10;99.90;;;;;;5096291;28;20130;-62
2023/04/28 01:03:48;;;;;;;2.85;1.75;;;12.10;99.90;;;;;;5113901;28;20414;-62
2023/04/28 01:06:15;;;;;;;1.52;1.27;;;12.10;99.90;;;;;;5113850;28;20444;-62
2023/04/28 01:08:42;;;;;;;1.58;1.27;;;12.20;99.90;;;;;;5078194;28;20048;-62
2023/04/28 01:11:12;;;;;;;1.20;1.05;;;12.20;99.90;;;;;;5113326;28;20044;-63
2023/04/28 01:13:39;;;;;;;1.67;1.25;;;12.20;99.90;;;;;;5113307;28;20047;-63
2023/04/28 01:16:06;;;;;;;1.45;1.13;;;12.20;99.90;;;;;;5113413;28;20047;-63
2023/04/28 01:18:33;;;;;;;1.30;1.20;;;12.20;99.90;;;;;;5077733;28;20510;-63
2023/04/28 01:21:00;;;;;;;2.00;1.17;;;12.20;99.90;;;;;;5095252;28;20122;-63
2023/04/28 01:23:27;;;;;;;1.40;1.30;;;12.30;99.90;;;;;;5113367;28;20040;-63
2023/04/28 01:25:53;;;;;;;1.55;1.30;;;12.30;99.90;;;;;;5112797;28;20036;-63
2023/04/28 01:28:20;;;;;;;1.63;1.50;;;12.30;99.90;;;;;;5103014;28;20044;-62
2023/04/28 01:30:47;;;;;;;1.42;1.20;;;12.30;99.90;;;;;;5075923;28;20417;-62
2023/04/28 01:33:14;;;;;;;1.55;1.45;;;12.30;99.90;;;;;;5112697;28;20043;-62
2023/04/28 01:35:40;;;;;;;1.92;1.75;;;12.30;99.90;;;;;;5112394;28;20066;-62
2023/04/28 01:38:07;;;;;;;4.15;2.35;;;12.30;99.90;;;;;;5111967;28;20131;-63
2023/04/28 01:40:34;;;;;;;2.78;2.58;;;12.40;99.90;;;;;;5094400;28;20062;-62
2023/04/28 01:43:00;;;;;;;2.92;2.50;;;12.40;99.90;;;;;;5112787;28;20090;-62
2023/04/28 01:45:27;;;;;;;3.22;2.67;;;12.40;99.90;;;;;;5106701;28;20071;-62
2023/04/28 01:47:54;;;;;;;3.30;2.97;;;12.40;99.90;;;;;;5108516;28;20490;-62
2023/04/28 01:50:21;;;;;;;3.38;3.08;;;12.40;99.90;;;;;;5094249;28;20043;-62
2023/04/28 01:52:48;;;;;;;3.78;3.20;;;12.40;99.90;;;;;;5112114;28;20139;-63
2023/04/28 01:55:14;;;;;;;3.65;3.33;;;12.40;99.90;;;;;;5111715;28;20075;-62
2023/04/28 01:57:42;;;;;;;3.90;3.60;;;12.40;99.90;;;;;;5093551;28;20559;-63
2023/04/28 02:00:09;;;;;;;3.90;3.60;;;12.40;99.90;;;;;;5110089;28;20126;-62
2023/04/28 02:02:36;;;;;;;3.42;3.13;;;12.40;99.90;;;;;;5092320;28;20443;-62
2023/04/28 02:05:03;;;;;;;3.83;3.53;;;12.50;99.90;;;;;;5111635;28;20539;-62
2023/04/28 02:07:29;;;;;;;3.80;3.42;;;12.50;99.90;;;;;;5107337;28;20071;-63
2023/04/28 02:09:56;;;;;;;4.07;3.67;;;12.50;99.90;;;;;;5112396;28;20048;-62
2023/04/28 02:12:23;;;;;;;5.78;4.07;;;12.50;99.90;;;;;;5111664;28;20043;-64
2023/04/28 02:14:50;;;;;;;4.93;4.43;;;12.50;99.90;;;;;;5076867;28;20135;-62
2023/04/28 02:17:17;;;;;;;4.40;4.00;;;12.50;99.90;;;;;;5111100;28;20107;-62
2023/04/28 02:19:43;;;;;;;4.85;4.10;;;12.50;99.90;;;;;;5111237;28;20134;-61
2023/04/28 02:22:10;;;;;;;4.35;3.70;;;12.50;99.90;;;;;;5111725;28;20454;-62
2023/04/28 02:24:37;;;;;;;6.13;4.35;;;12.50;99.90;;;;;;5111416;28;20051;-60
2023/04/28 02:27:04;;;;;;;5.47;4.75;;;12.50;99.90;;;;;;5104204;28;20101;-62
2023/04/28 02:29:31;;;;;;;5.15;4.63;;;12.50;99.90;;;;;;5093132;28;20677;-62
2023/04/28 02:31:58;;;;;;;5.03;4.53;;;12.50;99.90;;;;;;5111379;28;20074;-62
2023/04/28 02:34:25;;;;;;;5.97;5.20;;;12.50;99.90;;;;;;5108509;28;20063;-62
2023/04/28 02:36:52;;;;;;;5.95;5.32;;;12.50;99.90;;;;;;5109828;28;20486;-62
2023/04/28 02:39:20;;;;;;;5.40;4.90;;;12.50;99.90;;;;;;5110381;28;20640;-62
2023/04/28 02:41:47;;;;;;;5.72;5.13;;;12.50;99.90;;;;;;5092974;28;20039;-62
2023/04/28 02:44:14;;;;;;;5.93;5.32;;;12.50;99.90;;;;;;5101788;28;20519;-62
2023/04/28 02:46:41;;;;;;;4.95;4.45;;;12.50;99.90;;;;;;5111431;28;20040;-63
2023/04/28 02:49:08;;;;;;;7.15;5.28;;;12.60;99.90;;;;;;5110761;28;20039;-63
2023/04/28 02:51:35;;;;;;;7.63;6.00;;;12.60;99.90;;;;;;5110706;28;20048;-62
2023/04/28 02:54:01;;;;;;;5.95;5.35;;;12.60;99.90;;;;;;5110929;28;20090;-63
2023/04/28 02:56:29;;;;;;;7.90;5.97;;;12.60;99.90;;;;;;5106849;28;20039;-63
2023/04/28 02:58:55;;;;;;;6.50;5.90;;;12.60;99.90;;;;;;5108809;28;20071;-64
2023/04/28 03:01:22;;;;;;;7.45;5.53;;;12.60;99.90;;;;;;5110718;28;20078;-63
2023/04/28 03:03:49;;;;;;;7.65;5.40;;;12.60;99.90;;;;;;5092066;28;20498;-61
2023/04/28 03:06:16;;;;;;;7.90;4.70;;;12.60;99.90;;;;;;5092936;28;20355;-61
2023/04/28 03:08:43;;;;;;;6.80;5.53;;;12.60;99.90;;;;;;5110621;28;20512;-61
2023/04/28 03:11:10;;;;;;;6.63;5.35;;;12.50;99.90;;;;;;5110716;28;20409;-62
2023/04/28 03:13:37;;;;;;;5.30;4.70;;;12.60;99.90;;;;;;5093257;28;20040;-62
2023/04/28 03:16:06;;;;;;;6.32;5.38;;;12.60;99.90;;;;;;5092314;28;20048;-62
2023/04/28 03:18:33;;;;;;;6.53;4.35;;;12.60;99.90;;;;;;5091992;28;20059;-62
2023/04/28 03:21:00;;;;;;;4.90;3.80;;;12.60;99.90;;;;;;5110548;28;20561;-61
2023/04/28 03:23:27;;;;;;;4.40;3.83;;;12.60;99.90;;;;;;5110705;28;20130;-62
2023/04/28 03:25:54;;;;;;;8.98;5.38;;;12.60;99.90;;;;;;5092012;28;20414;-62
2023/04/28 03:28:20;;;;;;;6.88;3.78;;;12.60;99.90;;;;;;5098903;28;20036;-62
2023/04/28 03:30:47;;;;;;;4.82;3.65;;;12.60;99.90;;;;;;5110779;28;20135;-61
2023/04/28 03:33:14;;;;;;;4.72;4.18;;;12.60;99.90;;;;;;5092391;28;20127;-62
2023/04/28 03:35:42;;;;;;;6.10;5.50;;;12.60;99.90;;;;;;5110706;28;20112;-62
2023/04/28 03:38:08;;;;;;;5.32;4.63;;;12.60;99.90;;;;;;5110153;28;20052;-61
2023/04/28 03:40:35;;;;;;;7.05;4.53;;;12.60;99.90;;;;;;5088507;28;20047;-62
2023/04/28 03:43:02;;;;;;;8.02;4.47;;;12.60;99.90;;;;;;5110586;28;20453;-62
2023/04/28 03:45:30;;;;;;;5.72;4.18;;;12.60;99.90;;;;;;5092725;28;20233;-62
2023/04/28 03:47:57;;;;;;;11.20;5.55;;;12.60;99.90;;;;;;5092593;28;20516;-62
2023/04/28 03:50:24;;;;;;;8.43;4.72;;;12.60;99.90;;;;;;5110209;28;20055;-62
2023/04/28 03:52:52;;;;;;;6.30;4.97;;;12.50;99.90;;;;;;5111604;28;20083;-62
2023/04/28 03:55:19;;;;;;;7.85;4.97;;;12.50;99.90;;;;;;5113166;28;20119;-63
2023/04/28 03:57:46;;;;;;;6.80;4.40;;;12.50;99.90;;;;;;5103595;28;20067;-63
2023/04/28 04:00:13;;;;;;;5.45;4.40;;;12.40;99.90;;;;;;5113122;28;20040;-62
2023/04/28 04:02:40;;;;;;;7.28;4.55;;;12.40;99.90;;;;;;5081046;28;20052;-63
2023/04/28 04:05:07;;;;;;;5.80;5.25;;;12.40;99.90;;;;;;5089794;28;20047;-62
2023/04/28 04:07:34;;;;;;;8.65;5.80;;;12.30;99.90;;;;;;5110872;28;20426;-63
2023/04/28 04:10:01;;;;;;;5.63;4.70;;;12.30;99.90;;;;;;5078533;28;20067;-63
2023/04/28 04:12:30;;;;;;;5.50;4.03;;;12.30;99.90;;;;;;5096403;28;20501;-63
2023/04/28 04:14:57;;;;;;;3.83;3.05;;;12.30;99.90;;;;;;5114233;28;20067;-63
2023/04/28 04:17:24;;;;;;;4.43;2.75;;;12.30;99.90;;;;;;5113908;28;20036;-64
2023/04/28 04:19:51;;;;;;;3.45;1.90;;;12.20;99.90;;;;;;5113648;28;20044;-62
2023/04/28 04:22:17;;;;;;;5.32;1.88;;;12.20;99.90;;;;;;5095916;28;20047;-62
2023/04/28 04:24:44;;;;;;;2.70;1.80;;;12.20;99.90;;;;;;5096274;28;20044;-63
2023/04/28 04:27:11;;;;;;;1.17;1.02;;;12.10;99.90;;;;;;5113468;28;20705;-62
2023/04/28 04:29:38;;;;;;;1.45;1.10;;;12.10;99.90;;;;;;5114273;28;20128;-62
2023/04/28 04:32:05;;;;;;;1.75;1.23;;;12.10;99.90;;;;;;5094672;28;20127;-63
2023/04/28 04:34:32;;;;;;;2.35;1.35;;;12.10;99.90;;;;;;5114035;28;20044;-62
2023/04/28 04:36:59;;;;;;;1.35;1.00;;;12.20;99.90;;;;;;5095168;28;20044;-63
2023/04/28 04:39:26;;;;;;;1.83;0.98;;;12.10;99.90;;;;;;5095473;28;20039;-63
2023/04/28 04:41:53;;;;;;;2.80;1.02;;;12.20;99.90;;;;;;5094959;28;20083;-63
2023/04/28 04:44:20;;;;;;;1.45;1.02;;;12.20;99.90;;;;;;5095176;28;20075;-63
2023/04/28 04:46:47;;;;;;;1.17;1.02;;;12.20;99.90;;;;;;5114038;28;20066;-63
2023/04/28 04:49:14;;;;;;;1.30;0.90;;;12.20;99.90;;;;;;5095028;28;20226;-63
2023/04/28 04:51:40;;;;;;;2.88;0.88;;;12.20;99.90;;;;;;5078866;28;20046;-64
2023/04/28 04:54:07;;;;;;;1.58;0.88;;;12.20;99.90;;;;;;5113196;28;20134;-63
2023/04/28 04:56:34;;;;;;;1.90;1.00;;;12.20;99.90;;;;;;5112690;28;20130;-63
2023/04/28 04:59:01;;;;;;;1.05;0.57;;;12.20;99.90;;;;;;5113061;28;20043;-63
2023/04/28 05:01:28;;;;;;;0.85;0.73;;;12.20;99.90;;;;;;5095227;28;20074;-62
2023/04/28 05:03:55;;;;;;;2.33;0.90;;;12.20;99.90;;;;;;5088692;28;20063;-62
2023/04/28 05:06:22;;;;;;;0.50;0.50;;;12.20;99.90;;;;;;5109222;28;20039;-63
2023/04/28 05:08:49;;;;;;;0.30;0.30;;;12.20;99.90;;;;;;5115334;28;20082;-63
2023/04/28 05:11:16;;;;;;;1.38;0.77;;;12.20;99.90;;;;;;5115688;28;20050;-63
2023/04/28 05:13:42;;;;;;;5.90;0.60;;;12.20;99.90;;;;;;5076996;28;20040;-63
2023/04/28 05:16:09;;;;;;;1.30;0.63;;;12.20;99.90;;;;;;5115614;28;20044;-63
2023/04/28 05:18:36;;;;;;;1.30;0.80;;;12.20;99.90;;;;;;5093179;28;20051;-63
2023/04/28 05:21:03;;;;;;;1.05;0.65;;;12.30;99.90;;;;;;5096267;28;20044;-63
2023/04/28 05:23:29;;;;;;;1.05;0.60;;;12.30;99.90;;;;;;5112066;28;20073;-62
2023/04/28 05:25:56;;;;;;;0.60;0.60;;;12.30;99.90;;;;;;5106868;28;20447;-63
2023/04/28 05:28:23;;;;;;;1.40;0.80;;;12.30;99.90;;;;;;5107754;28;20071;-63
2023/04/28 05:30:50;;;;;;;0.82;0.50;;;12.30;99.90;;;;;;5094475;28;20043;-62
2023/04/28 05:33:16;;;;;;;1.73;0.70;;;12.30;99.90;;;;;;5111950;28;20035;-63
2023/04/28 05:35:43;;;;;;;1.05;0.50;;;12.30;99.90;;;;;;5113042;28;20075;-63
2023/04/28 05:38:10;;;;;;;2.53;0.60;;;12.40;99.90;;;;;;5094615;28;20043;-62
2023/04/28 05:40:37;;;;;;;1.23;0.55;;;12.40;99.90;;;;;;5094453;28;20126;-62
2023/04/28 05:43:03;;;;;;;0.98;0.70;;;12.40;99.90;;;;;;5093751;28;20040;-62
2023/04/28 05:45:30;;;;;;;1.38;0.68;;;12.40;99.90;;;;;;5110962;28;20047;-63
2023/04/28 05:47:57;;;;;;;0.95;0.85;;;12.40;99.90;;;;;;5105298;28;20122;-61
2023/04/28 05:50:24;;;;;;;0.70;0.60;;;12.40;99.90;;;;;;5094540;28;20096;-62
2023/04/28 05:52:50;;;;;;;0.77;0.63;;;12.50;99.90;;;;;;5093960;28;20130;-63
2023/04/28 05:55:17;;;;;;;0.90;0.68;;;12.50;99.90;;;;;;5111744;28;20043;-62
2023/04/28 05:57:44;;;;;;;0.60;0.60;;;12.50;99.90;;;;;;5082445;28;20078;-63
2023/04/28 06:00:18;;;;;;;;;;;12.50;99.90;;;;;;5109523;28;20047;-62
2023/04/28 06:02:45;;;;;;;4.80;1.05;;;12.60;99.90;;;;;;5111252;28;20006;-63
2023/04/28 06:05:12;;;;;;;0.47;0.45;;;12.60;99.90;;;;;;5111596;28;20079;-63
2023/04/28 06:07:39;;;;;;;1.33;0.55;;;12.60;99.90;;;;;;5111715;28;20048;-62
2023/04/28 06:10:06;;;;;;;0.65;0.40;;;12.60;99.90;;;;;;5094044;28;20459;-62
2023/04/28 06:12:33;;;;;;;1.23;0.60;;;12.60;99.90;;;;;;5077184;28;20044;-63
2023/04/28 06:15:00;;;;;;;5.93;0.90;;;12.60;99.90;;;;;;5111149;28;20073;-63
2023/04/28 06:17:27;;;;;;;0.70;0.50;;;12.60;99.90;;;;;;5109178;28;20101;-63
2023/04/28 06:19:55;;;;;;;1.73;0.80;;;12.60;99.90;;;;;;5110898;28;20115;-64
2023/04/28 06:22:21;;;;;;;1.25;0.47;;;12.70;99.90;;;;;;5107193;28;20043;-63
2023/04/28 06:24:48;;;;;;;1.60;1.05;;;12.70;99.90;;;;;;5077462;28;20140;-62
2023/04/28 06:27:15;;;;;;;0.80;0.52;;;12.80;99.90;;;;;;5107783;28;20047;-62
2023/04/28 06:29:42;;;;;;;0.88;0.52;;;12.90;99.90;;;;;;5082072;28;20039;-63
2023/04/28 06:32:08;;;;;;;2.47;0.40;;;13.00;99.90;;;;;;5111308;28;20047;-61
2023/04/28 06:34:36;;;;;;;2.28;0.40;;;13.10;99.90;;;;;;5100593;28;20115;-62
2023/04/28 06:37:03;;;;;;;3.15;0.60;;;13.10;99.90;;;;;;5111357;28;20089;-64
2023/04/28 06:39:30;;;;;;;1.60;0.63;;;13.20;99.90;;;;;;5093297;28;20130;-62
2023/04/28 06:41:57;;;;;;;1.25;0.38;;;13.30;99.90;;;;;;5093614;28;20130;-62
2023/04/28 06:44:23;;;;;;;0.70;0.30;;;13.30;99.90;;;;;;5111160;28;20561;-63
2023/04/28 06:46:50;;;;;;;1.33;1.10;;;13.30;99.90;;;;;;5115582;28;20134;-62
2023/04/28 06:49:17;;;;;;;0.75;0.40;;;13.30;99.90;;;;;;5115724;28;20472;-62
2023/04/28 06:51:44;;;;;;;0.57;0.43;;;13.30;99.90;;;;;;5077480;28;20528;-62
2023/04/28 06:54:11;;;;;;;1.52;0.65;;;13.40;99.90;;;;;;5102460;28;20067;-63
2023/04/28 06:56:37;;;;;;;0.52;0.30;;;13.50;99.90;;;;;;5113339;28;20058;-64
2023/04/28 06:59:05;;;;;;;1.08;0.35;;;13.50;99.90;;;;;;5094376;28;20563;-64
2023/04/28 07:01:31;;;;;;;0.68;0.30;;;13.50;99.90;;;;;;5110558;28;20078;-63
2023/04/28 07:03:58;;;;;;;2.83;0.30;;;13.50;99.90;;;;;;5110468;28;20050;-62
2023/04/28 07:06:26;;;;;;;1.42;0.57;;;13.50;99.90;;;;;;5111370;28;20043;-63
2023/04/28 07:08:53;;;;;;;11.02;0.80;;;13.50;99.90;;;;;;5111037;28;20071;-64
2023/04/28 07:11:20;;;;;;;0.85;0.50;;;13.50;99.90;;;;;;5076448;28;20063;-62
2023/04/28 07:13:49;;;;;;;3.67;0.80;;;13.50;99.90;;;;;;5111794;28;20052;-62
2023/04/28 07:16:16;;;;;;;1.95;0.73;;;13.50;99.90;;;;;;5097154;27;20050;-63
2023/04/28 07:18:44;;;;;;;1.38;0.55;;;13.60;99.90;;;;;;5085135;28;20305;-62
2023/04/28 07:21:11;;;;;;;0.40;0.32;;;13.50;99.90;;;;;;5085280;28;20048;-62
2023/04/28 07:23:39;;;;;;;1.73;0.70;;;13.60;99.90;;;;;;5081796;28;20083;-63
2023/04/28 07:26:06;;;;;;;2.97;0.50;;;13.60;99.90;;;;;;5088087;28;20148;-62
2023/04/28 07:28:32;;;;;;;0.57;0.40;;;13.60;99.90;;;;;;5078662;28;20089;-64
2023/04/28 07:30:59;;;;;;;1.05;0.52;;;13.70;99.90;;;;;;5071346;28;20137;-63
2023/04/28 07:33:26;;;;;;;0.73;0.30;;;13.80;99.90;;;;;;5087686;28;20054;-62
2023/04/28 07:35:53;;;;;;;2.28;0.65;;;13.90;99.90;;;;;;5088842;28;20051;-63
2023/04/28 07:38:20;;;;;;;2.25;0.60;;;13.90;99.90;;;;;;5087759;28;20067;-63
2023/04/28 07:40:47;;;;;;;1.00;0.63;;;13.80;99.90;;;;;;5070787;28;20071;-62
2023/04/28 07:43:14;;;;;;;3.60;1.00;;;13.70;99.90;;;;;;5081908;28;20059;-62
2023/04/28 07:45:40;;;;;;;15.43;2.85;;;13.70;99.90;;;;;;5087569;28;20044;-63
2023/04/28 07:48:07;;;;;;;27.60;5.78;;;13.80;99.90;;;;;;5089134;28;20055;-64
2023/04/28 07:50:34;;;;;;;18.00;3.85;;;13.90;99.90;;;;;;5088825;28;20078;-63
2023/04/28 07:53:01;;;;;;;4.90;2.15;;;14.00;99.90;;;;;;5088328;28;20107;-64
2023/04/28 07:55:28;;;;;;;2.65;0.88;;;14.00;99.90;;;;;;5077728;28;20056;-64
2023/04/28 07:57:57;;;;;;;18.27;3.15;;;14.10;99.90;;;;;;5087726;28;20052;-63
2023/04/28 08:00:25;;;;;;;2.10;0.82;;;14.00;99.90;;;;;;5088611;28;20090;-63
2023/04/28 08:02:51;;;;;;;3.63;0.45;;;14.00;99.90;;;;;;5089792;28;20554;-63
2023/04/28 08:05:19;;;;;;;0.38;0.38;;;14.00;99.90;;;;;;5089781;28;20052;-64
2023/04/28 08:07:46;;;;;;;2.20;0.47;;;13.90;99.90;;;;;;5089488;28;20109;-64
2023/04/28 08:10:13;;;;;;;1.08;0.45;;;13.90;99.90;;;;;;5088141;28;20044;-63
2023/04/28 08:12:40;;;;;;;1.55;0.30;;;13.90;99.90;;;;;;5088498;28;20063;-64
2023/04/28 08:15:08;;;;;;;1.60;0.55;;;13.90;99.90;;;;;;5070754;28;20084;-63
2023/04/28 08:17:35;;;;;;;1.35;0.30;;;14.10;99.90;;;;;;5088752;28;20060;-63
2023/04/28 08:20:02;;;;;;;7.97;1.30;;;14.20;99.90;;;;;;5107759;28;20052;-64
2023/04/28 08:22:28;;;;;;;3.38;0.55;;;14.40;99.90;;;;;;5109329;28;20048;-62
2023/04/28 08:24:55;;;;;;;3.42;0.50;;;14.30;99.90;;;;;;5108479;28;20054;-64
2023/04/28 08:27:23;;;;;;;2.20;0.30;;;14.50;99.90;;;;;;5091512;28;20128;-63
2023/04/28 08:29:50;;;;;;;2.30;0.60;;;14.50;99.90;;;;;;5109739;28;20048;-63
2023/04/28 08:32:17;;;;;;;2.85;0.45;;;14.60;99.90;;;;;;5104778;28;20071;-64
2023/04/28 08:34:44;;;;;;;1.02;0.32;;;14.60;99.90;;;;;;5109920;28;20051;-62
2023/04/28 08:37:11;;;;;;;0.52;0.32;;;14.80;99.90;;;;;;5105847;28;20547;-63
2023/04/28 08:39:38;;;;;;;0.30;0.30;;;14.90;99.90;;;;;;5109925;28;20051;-62
2023/04/28 08:42:04;;;;;;;1.63;0.40;;;14.90;99.90;;;;;;5109806;28;20138;-63
2023/04/28 08:44:38;;;;;;;2.78;0.30;;;15.00;99.90;;;;;;5074795;28;20139;-62
2023/04/28 08:47:15;;;;;;;1.80;0.47;;;15.10;99.90;;;;;;5108992;28;20043;-62
2023/04/28 08:49:42;;;;;;;4.32;0.32;;;15.20;99.90;;;;;;5109476;28;20138;-62
2023/04/28 08:52:10;;;;;;;4.57;0.57;;;15.20;99.90;;;;;;5075040;28;20075;-62
2023/04/28 08:54:39;;;;;;;2.95;0.82;;;15.20;99.90;;;;;;5110549;28;20321;-63
2023/04/28 08:57:08;;;;;;;3.58;0.40;;;15.20;99.90;;;;;;5114081;28;20047;-62
2023/04/28 08:59:38;;;;;;;3.72;0.40;;;15.30;99.90;;;;;;5116485;28;20040;-64
2023/04/28 09:02:08;;;;;;;1.35;0.30;;;15.20;99.90;;;;;;5107046;28;20578;-63
2023/04/28 09:04:35;;;;;;;4.53;0.60;;;15.30;99.90;;;;;;5115084;28;20040;-63
2023/04/28 09:07:02;;;;;;;3.35;0.30;;;15.40;99.90;;;;;;5115745;28;20130;-63
2023/04/28 09:09:29;;;;;;;0.85;0.20;;;15.40;99.90;;;;;;5116571;28;20047;-63
2023/04/28 09:12:03;;;;;;;4.63;0.73;;;15.40;99.90;;;;;;5115919;28;20402;-64
2023/04/28 09:14:34;;;;;;;5.50;0.73;;;15.30;99.90;;;;;;5111105;28;20488;-63
2023/04/28 09:17:01;;;;;;;2.25;0.20;;;15.30;99.90;;;;;;5096355;28;20061;-63
2023/04/28 09:19:33;;;;;;;1.00;0.35;;;15.30;99.90;;;;;;5113226;28;20072;-63
2023/04/28 09:21:59;;;;;;;2.30;0.40;;;15.40;99.90;;;;;;5112234;28;20109;-63
2023/04/28 09:24:40;;;;;;;0.40;0.30;;;15.60;99.90;;;;;;5115542;28;20130;-62
2023/04/28 09:27:09;;;;;;;1.50;0.57;;;15.70;99.90;;;;;;5094053;28;20117;-63
2023/04/28 09:29:36;;;;;;;1.83;0.30;;;15.70;99.90;;;;;;5113431;28;20075;-63
2023/04/28 09:32:13;;;;;;;12.52;0.75;;;15.70;99.90;;;;;;5112869;28;20040;-63
2023/04/28 09:34:48;;;;;;;2.10;0.70;;;15.80;99.90;;;;;;5084969;28;20044;-64
2023/04/28 09:37:21;;;;;;;3.67;0.35;;;16.00;99.90;;;;;;5112146;28;20035;-63
2023/04/28 09:39:52;;;;;;;0.35;0.28;;;16.00;99.90;;;;;;5080085;28;20497;-63
2023/04/28 09:42:32;;;;;;;2.45;0.22;;;15.80;99.90;;;;;;5110918;28;20060;-64
2023/04/28 09:45:02;;;;;;;2.60;0.40;;;15.60;99.90;;;;;;5102058;28;20104;-64
2023/04/28 09:47:31;;;;;;;1.58;0.40;;;15.50;99.90;;;;;;5094171;28;20053;-64
2023/04/28 09:49:59;;;;;;;1.58;0.63;;;15.40;99.90;;;;;;5111697;28;20043;-63
2023/04/28 09:52:26;;;;;;;2.63;0.30;;;15.30;99.90;;;;;;5072319;28;20044;-63
2023/04/28 09:54:55;;;;;;;3.03;0.52;;;15.20;99.90;;;;;;5077759;28;20558;-63
2023/04/28 09:57:22;;;;;;;2.10;0.38;;;15.20;99.90;;;;;;5111390;28;20310;-63
2023/04/28 09:59:50;;;;;;;1.38;0.50;;;15.10;99.90;;;;;;5093791;28;20040;-64
2023/04/28 10:02:18;;;;;;;1.95;0.13;;;14.90;99.90;;;;;;5094139;28;20071;-63
2023/04/28 10:05:07;;;;;;;3.20;0.47;;;15.00;99.90;;;;;;5112423;28;20046;-63
2023/04/28 10:07:35;;;;;;;0.73;0.40;;;14.90;99.90;;;;;;5094059;28;20186;-63
2023/04/28 10:10:02;;;;;;;1.13;0.30;;;14.90;99.90;;;;;;5094308;28;20131;-64
2023/04/28 10:12:29;;;;;;;0.60;0.55;;;15.00;99.90;;;;;;5093978;28;20287;-62
2023/04/28 10:14:56;;;;;;;11.65;0.90;;;15.10;99.90;;;;;;5112310;28;20082;-62
2023/04/28 10:17:28;;;;;;;0.30;0.30;;;15.20;99.90;;;;;;5093567;28;20047;-63
2023/04/28 10:19:55;;;;;;;1.35;0.50;;;15.40;99.90;;;;;;5107020;28;20104;-63
2023/04/28 10:22:46;;;;;;;1.20;0.45;;;15.40;99.90;;;;;;5100582;28;20047;-64
2023/04/28 10:25:25;;;;;;;5.18;0.50;;;15.30;99.90;;;;;;5094670;28;20123;-64
2023/04/28 10:27:52;;;;;;;0.93;0.32;;;15.20;99.90;;;;;;5094368;28;20047;-63
2023/04/28 10:30:20;;;;;;;0.65;0.40;;;15.00;99.90;;;;;;5061151;28;20119;-64
2023/04/28 10:33:12;;;;;;;3.60;0.55;;;15.00;99.90;;;;;;5112020;28;20048;-64
2023/04/28 10:35:46;;;;;;;0.65;0.30;;;15.20;99.90;;;;;;5112184;28;20055;-64
2023/04/28 10:38:13;;;;;;;;;;;15.30;99.90;;;;;;5094567;28;20051;-64
2023/04/28 10:40:44;;;;;;;2.05;0.40;;;15.50;99.90;;;;;;5112467;28;20024;-64
2023/04/28 10:43:23;;;;;;;1.23;0.30;;;15.80;99.90;;;;;;5083049;28;20429;-63
2023/04/28 10:48:29;;;;;;;1.15;0.40;;;16.10;99.90;;;;;;5100233;28;20039;-63
2023/04/28 10:51:03;;;;;;;2.50;0.38;;;16.10;99.90;;;;;;5107954;28;20047;-63
2023/04/28 10:53:42;;;;;;;0.82;0.80;;;16.10;99.90;;;;;;5100458;28;20123;-63
2023/04/28 10:56:22;;;;;;;0.90;0.40;;;16.10;99.90;;;;;;5111968;28;20080;-63
2023/04/28 10:58:58;;;;;;;1.35;0.40;;;15.80;99.90;;;;;;5084385;28;20126;-62
2023/04/28 11:01:33;;;;;;;33.13;4.20;;;15.70;99.90;;;;;;5093673;28;20126;-63
2023/04/28 11:04:11;;;;;;;3.67;1.15;;;15.50;99.90;;;;;;5112129;28;20090;-62
2023/04/28 11:06:43;;;;;;;16.25;3.33;;;15.50;99.90;;;;;;5078182;28;20047;-63
2023/04/28 11:09:18;;;;;;;11.82;2.58;;;15.50;99.90;;;;;;5110819;28;20039;-62
2023/04/28 11:12:10;;;;;;;54.45;6.45;;;15.40;99.90;;;;;;5111256;28;20044;-62
2023/04/28 11:14:39;;;;;;;8.00;1.08;;;15.40;99.90;;;;;;5111292;28;20146;-63
2023/04/28 11:17:11;;;;;;;2.25;0.70;;;15.40;99.90;;;;;;5110945;28;20055;-63
2023/04/28 11:19:43;;;;;;;1.83;0.52;;;15.40;99.90;;;;;;5103452;28;20083;-63
2023/04/28 11:22:18;;;;;;;1.70;0.80;;;15.40;99.90;;;;;;5108697;28;20051;-62
2023/04/28 11:25:01;;;;;;;5.15;0.68;;;15.70;99.90;;;;;;5107572;28;20261;-62
2023/04/28 11:27:30;;;;;;;2.85;0.57;;;15.80;99.90;;;;;;5075776;28;20048;-63
2023/04/28 11:29:57;;;;;;;5.60;0.80;;;15.70;99.90;;;;;;5110719;28;20082;-63
2023/04/28 11:32:31;;;;;;;4.32;0.50;;;15.60;99.90;;;;;;5092948;28;20146;-63
2023/04/28 11:34:58;;;;;;;3.50;0.52;;;15.60;99.90;;;;;;5094974;28;20514;-64
2023/04/28 11:37:25;;;;;;;1.48;0.50;;;15.60;99.90;;;;;;5095041;28;20039;-64
2023/04/28 11:39:52;;;;;;;5.50;0.82;;;15.70;99.90;;;;;;5111818;28;20047;-63
2023/04/28 11:42:19;;;;;;;1.10;0.40;;;16.00;99.90;;;;;;5110829;28;20067;-63
2023/04/28 11:44:51;;;;;;;1.83;0.50;;;16.10;99.90;;;;;;5111158;28;20123;-63
2023/04/28 11:47:31;;;;;;;5.45;0.70;;;16.30;99.90;;;;;;5066858;28;20097;-63
2023/04/28 11:49:59;;;;;;;2.30;0.60;;;16.70;99.90;;;;;;5109723;28;20043;-63
2023/04/28 11:52:26;;;;;;;1.55;0.70;;;16.70;99.90;;;;;;5101918;28;20044;-63
2023/04/28 11:54:58;;;;;;;1.77;0.73;;;16.60;99.90;;;;;;5092233;28;20134;-63
2023/04/28 11:57:26;;;;;;;2.35;0.90;;;16.50;99.90;;;;;;5092519;28;20075;-63
2023/04/28 11:59:53;;;;;;;3.13;0.60;;;16.40;99.90;;;;;;5092021;28;20556;-63
2023/04/28 12:02:27;;;;;;;4.95;0.75;;;16.40;99.90;;;;;;5110581;28;20043;-63
2023/04/28 12:04:55;;;;;;;1.42;0.93;;;16.20;99.90;;;;;;5111774;28;20050;-63
2023/04/28 12:07:22;;;;;;;1.58;0.55;;;16.00;99.90;;;;;;5092542;28;20527;-63
2023/04/28 12:10:12;;;;;;;1.42;0.57;;;15.90;99.90;;;;;;5111376;28;20134;-62
2023/04/28 12:12:38;;;;;;;26.73;4.05;;;15.90;99.90;;;;;;5107463;28;20135;-63
2023/04/28 12:15:17;;;;;;;4.40;1.88;;;16.00;99.90;;;;;;5111325;28;20100;-62
2023/04/28 12:17:47;;;;;;;1.10;0.57;;;16.20;99.90;;;;;;5076136;28;20096;-62
2023/04/28 12:20:36;;;;;;;1.98;1.10;;;16.40;99.90;;;;;;5089161;28;20139;-63
2023/04/28 12:23:04;;;;;;;5.20;0.90;;;16.70;99.90;;;;;;5107385;28;20131;-63
2023/04/28 12:25:32;;;;;;;2.83;0.50;;;16.90;99.90;;;;;;5110941;28;20056;-62
2023/04/28 12:28:01;;;;;;;0.98;0.70;;;16.70;99.90;;;;;;5092236;28;20055;-62
2023/04/28 12:30:29;;;;;;;1.02;0.77;;;16.70;99.90;;;;;;5112807;28;20428;-63
2023/04/28 12:32:56;;;;;;;7.75;0.80;;;16.70;99.90;;;;;;5095151;28;20040;-63
2023/04/28 12:35:24;;;;;;;6.75;0.88;;;16.80;99.90;;;;;;5095832;28;20455;-63
2023/04/28 12:37:52;;;;;;;0.68;0.63;;;17.00;99.90;;;;;;5112940;28;20040;-64
2023/04/28 12:40:19;;;;;;;4.05;0.80;;;17.10;99.90;;;;;;5092470;28;20044;-64
2023/04/28 12:42:46;;;;;;;4.57;1.27;;;17.00;99.90;;;;;;5113663;28;20048;-64
2023/04/28 12:45:13;;;;;;;4.60;0.80;;;17.00;99.90;;;;;;5113790;28;20063;-63
2023/04/28 12:47:40;;;;;;;2.28;0.63;;;17.10;99.90;;;;;;5113352;28;20059;-64
2023/04/28 12:50:07;;;;;;;1.60;1.00;;;17.00;99.90;;;;;;5101675;28;20055;-64
2023/04/28 12:52:36;;;;;;;5.82;0.90;;;16.90;99.90;;;;;;5097090;28;20048;-63
2023/04/28 12:55:03;;;;;;;2.50;0.82;;;16.90;99.90;;;;;;5096840;28;20047;-63